sensor_id;sensor_type;location;lat;lon;timestamp;P1;durP1;ratioP1;P2;durP2;ratioP2
70342;SDS011;57767;42.068;24.752;2023-03-02T00:00:41;26.27;;;16.02;;
70342;SDS011;57767;42.068;24.752;2023-03-02T00:02:54;35.05;;;18.10;;
70342;SDS011;57767;42.068;24.752;2023-03-02T00:03:56;27.77;;;17.83;;
70342;SDS011;57767;42.068;24.752;2023-03-02T00:04:59;36.40;;;18.80;;
70342;SDS011;57767;42.068;24.752;2023-03-02T00:06:03;26.63;;;17.55;;
70342;SDS011;57767;42.068;24.752;2023-03-02T00:07:06;29.52;;;17.77;;
70342;SDS011;57767;42.068;24.752;2023-03-02T00:08:11;34.10;;;18.60;;
70342;SDS011;57767;42.068;24.752;2023-03-02T00:09:16;31.52;;;17.98;;
70342;SDS011;57767;42.068;24.752;2023-03-02T00:10:18;35.47;;;18.65;;
70342;SDS011;57767;42.068;24.752;2023-03-02T00:11:20;33.25;;;20.17;;
70342;SDS011;57767;42.068;24.752;2023-03-02T00:12:22;34.33;;;20.45;;
70342;SDS011;57767;42.068;24.752;2023-03-02T00:13:30;36.67;;;20.92;;
70342;SDS011;57767;42.068;24.752;2023-03-02T00:14:34;36.15;;;20.33;;
70342;SDS011;57767;42.068;24.752;2023-03-02T00:15:38;35.60;;;20.17;;
70342;SDS011;57767;42.068;24.752;2023-03-02T00:16:40;33.78;;;19.58;;
70342;SDS011;57767;42.068;24.752;2023-03-02T00:17:42;33.83;;;20.15;;
70342;SDS011;57767;42.068;24.752;2023-03-02T00:18:43;31.67;;;20.15;;
70342;SDS011;57767;42.068;24.752;2023-03-02T00:19:45;31.35;;;20.35;;
70342;SDS011;57767;42.068;24.752;2023-03-02T00:20:47;32.53;;;22.63;;
70342;SDS011;57767;42.068;24.752;2023-03-02T00:21:49;38.95;;;23.40;;
70342;SDS011;57767;42.068;24.752;2023-03-02T00:22:51;37.97;;;22.52;;
70342;SDS011;57767;42.068;24.752;2023-03-02T00:23:52;42.75;;;23.92;;
70342;SDS011;57767;42.068;24.752;2023-03-02T00:24:54;34.03;;;22.52;;
70342;SDS011;57767;42.068;24.752;2023-03-02T00:25:56;40.00;;;22.75;;
70342;SDS011;57767;42.068;24.752;2023-03-02T00:26:58;39.17;;;23.38;;
70342;SDS011;57767;42.068;24.752;2023-03-02T00:27:59;35.70;;;22.77;;
70342;SDS011;57767;42.068;24.752;2023-03-02T00:29:01;35.72;;;22.83;;
70342;SDS011;57767;42.068;24.752;2023-03-02T00:30:04;35.25;;;23.17;;
70342;SDS011;57767;42.068;24.752;2023-03-02T00:31:06;39.95;;;25.23;;
70342;SDS011;57767;42.068;24.752;2023-03-02T00:32:08;37.83;;;23.30;;
70342;SDS011;57767;42.068;24.752;2023-03-02T00:33:12;41.53;;;23.02;;
70342;SDS011;57767;42.068;24.752;2023-03-02T00:34:13;35.75;;;23.55;;
70342;SDS011;57767;42.068;24.752;2023-03-02T00:35:15;38.47;;;24.15;;
70342;SDS011;57767;42.068;24.752;2023-03-02T00:36:17;37.08;;;23.90;;
70342;SDS011;57767;42.068;24.752;2023-03-02T00:37:20;37.22;;;24.73;;
70342;SDS011;57767;42.068;24.752;2023-03-02T00:38:22;40.25;;;25.13;;
70342;SDS011;57767;42.068;24.752;2023-03-02T00:39:24;40.90;;;24.90;;
70342;SDS011;57767;42.068;24.752;2023-03-02T00:40:26;40.30;;;24.80;;
70342;SDS011;57767;42.068;24.752;2023-03-02T00:41:27;37.75;;;25.00;;
70342;SDS011;57767;42.068;24.752;2023-03-02T00:42:29;40.90;;;25.20;;
70342;SDS011;57767;42.068;24.752;2023-03-02T00:43:31;48.70;;;25.83;;
70342;SDS011;57767;42.068;24.752;2023-03-02T00:44:33;49.10;;;26.35;;
70342;SDS011;57767;42.068;24.752;2023-03-02T00:45:34;42.53;;;25.90;;
70342;SDS011;57767;42.068;24.752;2023-03-02T00:46:36;40.08;;;24.98;;
70342;SDS011;57767;42.068;24.752;2023-03-02T00:47:38;42.58;;;26.30;;
70342;SDS011;57767;42.068;24.752;2023-03-02T00:48:41;39.03;;;24.30;;
70342;SDS011;57767;42.068;24.752;2023-03-02T00:49:43;42.40;;;26.05;;
70342;SDS011;57767;42.068;24.752;2023-03-02T00:50:49;36.22;;;25.65;;
70342;SDS011;57767;42.068;24.752;2023-03-02T00:51:51;38.35;;;24.88;;
70342;SDS011;57767;42.068;24.752;2023-03-02T00:52:52;43.10;;;25.58;;
70342;SDS011;57767;42.068;24.752;2023-03-02T00:53:54;36.80;;;24.70;;
70342;SDS011;57767;42.068;24.752;2023-03-02T00:54:56;45.63;;;26.65;;
70342;SDS011;57767;42.068;24.752;2023-03-02T00:55:58;37.10;;;26.20;;
70342;SDS011;57767;42.068;24.752;2023-03-02T00:57:01;41.30;;;26.00;;
70342;SDS011;57767;42.068;24.752;2023-03-02T00:58:03;37.35;;;26.35;;
70342;SDS011;57767;42.068;24.752;2023-03-02T00:59:06;41.20;;;27.58;;
70342;SDS011;57767;42.068;24.752;2023-03-02T01:00:27;48.55;;;27.90;;
70342;SDS011;57767;42.068;24.752;2023-03-02T01:01:29;41.10;;;26.25;;
70342;SDS011;57767;42.068;24.752;2023-03-02T01:02:31;47.78;;;26.80;;
70342;SDS011;57767;42.068;24.752;2023-03-02T01:03:33;40.45;;;27.20;;
70342;SDS011;57767;42.068;24.752;2023-03-02T01:04:37;52.17;;;29.77;;
70342;SDS011;57767;42.068;24.752;2023-03-02T01:05:40;46.63;;;30.23;;
70342;SDS011;57767;42.068;24.752;2023-03-02T01:06:42;46.97;;;30.52;;
70342;SDS011;57767;42.068;24.752;2023-03-02T01:07:47;42.97;;;28.83;;
70342;SDS011;57767;42.068;24.752;2023-03-02T01:08:49;49.72;;;30.75;;
70342;SDS011;57767;42.068;24.752;2023-03-02T01:09:51;49.33;;;30.55;;
70342;SDS011;57767;42.068;24.752;2023-03-02T01:10:52;42.53;;;29.58;;
70342;SDS011;57767;42.068;24.752;2023-03-02T01:11:54;52.03;;;29.35;;
70342;SDS011;57767;42.068;24.752;2023-03-02T01:12:56;48.55;;;28.98;;
70342;SDS011;57767;42.068;24.752;2023-03-02T01:13:58;44.75;;;28.92;;
70342;SDS011;57767;42.068;24.752;2023-03-02T01:15:00;46.95;;;27.83;;
70342;SDS011;57767;42.068;24.752;2023-03-02T01:16:03;48.42;;;29.70;;
70342;SDS011;57767;42.068;24.752;2023-03-02T01:17:05;46.33;;;28.30;;
70342;SDS011;57767;42.068;24.752;2023-03-02T01:18:07;44.72;;;28.75;;
70342;SDS011;57767;42.068;24.752;2023-03-02T01:19:12;44.80;;;27.48;;
70342;SDS011;57767;42.068;24.752;2023-03-02T01:20:15;46.63;;;27.10;;
70342;SDS011;57767;42.068;24.752;2023-03-02T01:21:17;45.00;;;27.92;;
70342;SDS011;57767;42.068;24.752;2023-03-02T01:22:20;50.10;;;28.38;;
70342;SDS011;57767;42.068;24.752;2023-03-02T01:23:22;46.28;;;27.27;;
70342;SDS011;57767;42.068;24.752;2023-03-02T01:24:24;46.28;;;28.50;;
70342;SDS011;57767;42.068;24.752;2023-03-02T01:25:26;44.53;;;26.70;;
70342;SDS011;57767;42.068;24.752;2023-03-02T01:26:28;46.28;;;25.15;;
70342;SDS011;57767;42.068;24.752;2023-03-02T01:27:30;43.88;;;25.52;;
70342;SDS011;57767;42.068;24.752;2023-03-02T01:28:32;44.70;;;23.52;;
70342;SDS011;57767;42.068;24.752;2023-03-02T01:29:34;40.55;;;24.58;;
70342;SDS011;57767;42.068;24.752;2023-03-02T01:30:36;37.20;;;23.85;;
70342;SDS011;57767;42.068;24.752;2023-03-02T01:31:38;39.60;;;23.60;;
70342;SDS011;57767;42.068;24.752;2023-03-02T01:32:40;44.03;;;23.38;;
70342;SDS011;57767;42.068;24.752;2023-03-02T01:33:42;38.92;;;23.67;;
70342;SDS011;57767;42.068;24.752;2023-03-02T01:34:44;41.78;;;23.63;;
70342;SDS011;57767;42.068;24.752;2023-03-02T01:35:46;37.00;;;23.50;;
70342;SDS011;57767;42.068;24.752;2023-03-02T01:36:48;43.42;;;22.95;;
70342;SDS011;57767;42.068;24.752;2023-03-02T01:37:50;41.65;;;22.48;;
70342;SDS011;57767;42.068;24.752;2023-03-02T01:38:52;38.90;;;23.02;;
70342;SDS011;57767;42.068;24.752;2023-03-02T01:39:54;38.05;;;23.92;;
70342;SDS011;57767;42.068;24.752;2023-03-02T01:40:56;38.80;;;24.63;;
70342;SDS011;57767;42.068;24.752;2023-03-02T01:41:58;40.60;;;24.15;;
70342;SDS011;57767;42.068;24.752;2023-03-02T01:42:59;38.03;;;23.98;;
70342;SDS011;57767;42.068;24.752;2023-03-02T01:44:04;40.05;;;24.05;;
70342;SDS011;57767;42.068;24.752;2023-03-02T01:46:43;38.60;;;22.77;;
70342;SDS011;57767;42.068;24.752;2023-03-02T01:47:45;37.90;;;23.42;;
70342;SDS011;57767;42.068;24.752;2023-03-02T01:48:55;37.22;;;21.95;;
70342;SDS011;57767;42.068;24.752;2023-03-02T01:51:27;37.08;;;24.30;;
70342;SDS011;57767;42.068;24.752;2023-03-02T01:52:32;37.20;;;22.23;;
70342;SDS011;57767;42.068;24.752;2023-03-02T01:53:38;41.53;;;23.35;;
70342;SDS011;57767;42.068;24.752;2023-03-02T01:54:46;40.55;;;23.42;;
70342;SDS011;57767;42.068;24.752;2023-03-02T01:55:50;40.33;;;22.92;;
70342;SDS011;57767;42.068;24.752;2023-03-02T01:56:55;39.40;;;22.05;;
70342;SDS011;57767;42.068;24.752;2023-03-02T01:57:59;37.85;;;21.42;;
70342;SDS011;57767;42.068;24.752;2023-03-02T01:59:05;35.95;;;19.98;;
70342;SDS011;57767;42.068;24.752;2023-03-02T02:00:13;38.20;;;20.75;;
70342;SDS011;57767;42.068;24.752;2023-03-02T02:02:22;31.92;;;20.40;;
70342;SDS011;57767;42.068;24.752;2023-03-02T02:03:25;40.78;;;21.98;;
70342;SDS011;57767;42.068;24.752;2023-03-02T02:04:29;38.20;;;21.70;;
70342;SDS011;57767;42.068;24.752;2023-03-02T02:05:32;33.70;;;21.55;;
70342;SDS011;57767;42.068;24.752;2023-03-02T02:06:58;38.95;;;21.80;;
70342;SDS011;57767;42.068;24.752;2023-03-02T02:08:04;33.25;;;19.60;;
70342;SDS011;57767;42.068;24.752;2023-03-02T02:09:06;34.55;;;19.98;;
70342;SDS011;57767;42.068;24.752;2023-03-02T02:10:11;40.80;;;19.38;;
70342;SDS011;57767;42.068;24.752;2023-03-02T02:11:13;36.42;;;20.40;;
70342;SDS011;57767;42.068;24.752;2023-03-02T02:12:16;37.00;;;19.75;;
70342;SDS011;57767;42.068;24.752;2023-03-02T02:13:21;35.03;;;19.67;;
70342;SDS011;57767;42.068;24.752;2023-03-02T02:14:23;29.25;;;18.48;;
70342;SDS011;57767;42.068;24.752;2023-03-02T02:15:25;30.77;;;17.75;;
70342;SDS011;57767;42.068;24.752;2023-03-02T02:16:27;34.88;;;18.65;;
70342;SDS011;57767;42.068;24.752;2023-03-02T02:17:32;33.22;;;18.45;;
70342;SDS011;57767;42.068;24.752;2023-03-02T02:18:36;33.03;;;19.17;;
70342;SDS011;57767;42.068;24.752;2023-03-02T02:21:00;37.22;;;16.60;;
70342;SDS011;57767;42.068;24.752;2023-03-02T02:22:02;25.85;;;13.43;;
70342;SDS011;57767;42.068;24.752;2023-03-02T02:23:08;24.88;;;12.68;;
70342;SDS011;57767;42.068;24.752;2023-03-02T02:27:35;30.58;;;14.98;;
70342;SDS011;57767;42.068;24.752;2023-03-02T02:28:41;31.27;;;15.15;;
70342;SDS011;57767;42.068;24.752;2023-03-02T02:30:14;29.38;;;14.27;;
70342;SDS011;57767;42.068;24.752;2023-03-02T02:31:22;28.23;;;14.38;;
70342;SDS011;57767;42.068;24.752;2023-03-02T02:32:27;28.20;;;15.63;;
70342;SDS011;57767;42.068;24.752;2023-03-02T02:33:32;32.65;;;16.27;;
70342;SDS011;57767;42.068;24.752;2023-03-02T02:34:38;31.90;;;14.52;;
70342;SDS011;57767;42.068;24.752;2023-03-02T02:35:45;30.60;;;13.20;;
70342;SDS011;57767;42.068;24.752;2023-03-02T02:36:51;25.83;;;13.75;;
70342;SDS011;57767;42.068;24.752;2023-03-02T02:37:56;29.05;;;13.30;;
70342;SDS011;57767;42.068;24.752;2023-03-02T02:39:03;26.63;;;13.10;;
70342;SDS011;57767;42.068;24.752;2023-03-02T02:40:11;33.47;;;16.63;;
70342;SDS011;57767;42.068;24.752;2023-03-02T02:41:18;21.60;;;11.38;;
70342;SDS011;57767;42.068;24.752;2023-03-02T02:42:28;23.50;;;11.93;;
70342;SDS011;57767;42.068;24.752;2023-03-02T02:43:33;27.08;;;11.93;;
70342;SDS011;57767;42.068;24.752;2023-03-02T02:44:35;20.77;;;11.60;;
70342;SDS011;57767;42.068;24.752;2023-03-02T02:45:37;20.05;;;11.32;;
70342;SDS011;57767;42.068;24.752;2023-03-02T02:46:39;24.70;;;11.55;;
70342;SDS011;57767;42.068;24.752;2023-03-02T02:47:40;19.30;;;9.63;;
70342;SDS011;57767;42.068;24.752;2023-03-02T02:48:43;20.08;;;10.75;;
70342;SDS011;57767;42.068;24.752;2023-03-02T02:49:45;19.05;;;11.05;;
70342;SDS011;57767;42.068;24.752;2023-03-02T02:50:50;26.25;;;11.73;;
70342;SDS011;57767;42.068;24.752;2023-03-02T02:52:01;22.27;;;9.95;;
70342;SDS011;57767;42.068;24.752;2023-03-02T02:53:05;17.48;;;10.10;;
70342;SDS011;57767;42.068;24.752;2023-03-02T02:54:13;23.13;;;11.07;;
70342;SDS011;57767;42.068;24.752;2023-03-02T02:55:19;24.63;;;11.55;;
70342;SDS011;57767;42.068;24.752;2023-03-02T02:56:24;23.52;;;10.65;;
70342;SDS011;57767;42.068;24.752;2023-03-02T02:57:32;19.05;;;11.32;;
70342;SDS011;57767;42.068;24.752;2023-03-02T02:58:36;19.48;;;9.70;;
70342;SDS011;57767;42.068;24.752;2023-03-02T02:59:47;19.85;;;11.07;;
70342;SDS011;57767;42.068;24.752;2023-03-02T03:00:51;23.38;;;11.18;;
70342;SDS011;57767;42.068;24.752;2023-03-02T03:01:55;26.77;;;11.52;;
70342;SDS011;57767;42.068;24.752;2023-03-02T03:02:57;26.55;;;11.88;;
70342;SDS011;57767;42.068;24.752;2023-03-02T03:04:05;22.30;;;11.32;;
70342;SDS011;57767;42.068;24.752;2023-03-02T03:05:11;22.73;;;11.25;;
70342;SDS011;57767;42.068;24.752;2023-03-02T03:06:19;21.50;;;11.68;;
70342;SDS011;57767;42.068;24.752;2023-03-02T03:07:25;21.35;;;11.88;;
70342;SDS011;57767;42.068;24.752;2023-03-02T03:09:44;25.40;;;11.32;;
70342;SDS011;57767;42.068;24.752;2023-03-02T03:11:11;25.67;;;11.13;;
70342;SDS011;57767;42.068;24.752;2023-03-02T03:12:16;22.33;;;12.15;;
70342;SDS011;57767;42.068;24.752;2023-03-02T03:13:22;26.20;;;11.95;;
70342;SDS011;57767;42.068;24.752;2023-03-02T03:14:28;26.88;;;12.68;;
70342;SDS011;57767;42.068;24.752;2023-03-02T03:15:34;26.38;;;12.70;;
70342;SDS011;57767;42.068;24.752;2023-03-02T03:16:37;31.17;;;12.98;;
70342;SDS011;57767;42.068;24.752;2023-03-02T03:17:45;22.77;;;12.50;;
70342;SDS011;57767;42.068;24.752;2023-03-02T03:18:56;20.42;;;12.80;;
70342;SDS011;57767;42.068;24.752;2023-03-02T03:20:03;19.63;;;11.32;;
70342;SDS011;57767;42.068;24.752;2023-03-02T03:21:09;25.58;;;12.20;;
70342;SDS011;57767;42.068;24.752;2023-03-02T03:22:12;21.10;;;12.00;;
70342;SDS011;57767;42.068;24.752;2023-03-02T03:23:15;20.88;;;12.70;;
70342;SDS011;57767;42.068;24.752;2023-03-02T03:24:17;29.27;;;12.75;;
70342;SDS011;57767;42.068;24.752;2023-03-02T03:25:20;32.38;;;11.30;;
70342;SDS011;57767;42.068;24.752;2023-03-02T03:26:25;20.88;;;11.13;;
70342;SDS011;57767;42.068;24.752;2023-03-02T03:27:27;29.30;;;11.15;;
70342;SDS011;57767;42.068;24.752;2023-03-02T03:28:29;19.92;;;9.60;;
70342;SDS011;57767;42.068;24.752;2023-03-02T03:29:32;20.75;;;10.90;;
70342;SDS011;57767;42.068;24.752;2023-03-02T03:30:35;25.00;;;11.27;;
70342;SDS011;57767;42.068;24.752;2023-03-02T03:31:36;22.77;;;11.45;;
70342;SDS011;57767;42.068;24.752;2023-03-02T03:32:39;21.33;;;12.38;;
70342;SDS011;57767;42.068;24.752;2023-03-02T03:33:41;24.85;;;11.88;;
70342;SDS011;57767;42.068;24.752;2023-03-02T03:34:43;29.65;;;12.10;;
70342;SDS011;57767;42.068;24.752;2023-03-02T03:35:44;22.20;;;12.05;;
70342;SDS011;57767;42.068;24.752;2023-03-02T03:36:46;23.50;;;12.75;;
70342;SDS011;57767;42.068;24.752;2023-03-02T03:37:48;24.88;;;11.85;;
70342;SDS011;57767;42.068;24.752;2023-03-02T03:38:51;30.58;;;11.27;;
70342;SDS011;57767;42.068;24.752;2023-03-02T03:39:53;29.27;;;11.95;;
70342;SDS011;57767;42.068;24.752;2023-03-02T03:40:55;26.63;;;12.00;;
70342;SDS011;57767;42.068;24.752;2023-03-02T03:41:57;22.50;;;11.50;;
70342;SDS011;57767;42.068;24.752;2023-03-02T03:42:59;21.52;;;11.88;;
70342;SDS011;57767;42.068;24.752;2023-03-02T03:44:02;28.05;;;11.63;;
70342;SDS011;57767;42.068;24.752;2023-03-02T03:45:05;19.60;;;9.55;;
70342;SDS011;57767;42.068;24.752;2023-03-02T03:46:08;24.50;;;11.52;;
70342;SDS011;57767;42.068;24.752;2023-03-02T03:47:10;30.50;;;12.45;;
70342;SDS011;57767;42.068;24.752;2023-03-02T03:48:12;23.40;;;13.52;;
70342;SDS011;57767;42.068;24.752;2023-03-02T03:49:14;20.52;;;11.45;;
70342;SDS011;57767;42.068;24.752;2023-03-02T03:50:16;21.17;;;12.27;;
70342;SDS011;57767;42.068;24.752;2023-03-02T03:51:18;33.28;;;14.88;;
70342;SDS011;57767;42.068;24.752;2023-03-02T03:52:20;18.13;;;10.45;;
70342;SDS011;57767;42.068;24.752;2023-03-02T03:53:31;24.02;;;11.07;;
70342;SDS011;57767;42.068;24.752;2023-03-02T03:54:33;21.63;;;11.70;;
70342;SDS011;57767;42.068;24.752;2023-03-02T03:55:35;20.88;;;11.48;;
70342;SDS011;57767;42.068;24.752;2023-03-02T03:56:38;20.42;;;11.10;;
70342;SDS011;57767;42.068;24.752;2023-03-02T03:57:42;21.98;;;11.80;;
70342;SDS011;57767;42.068;24.752;2023-03-02T03:58:44;17.77;;;10.68;;
70342;SDS011;57767;42.068;24.752;2023-03-02T03:59:46;19.60;;;11.48;;
70342;SDS011;57767;42.068;24.752;2023-03-02T04:00:47;36.63;;;17.60;;
70342;SDS011;57767;42.068;24.752;2023-03-02T04:01:53;52.70;;;23.35;;
70342;SDS011;57767;42.068;24.752;2023-03-02T04:02:56;28.98;;;13.85;;
70342;SDS011;57767;42.068;24.752;2023-03-02T04:03:58;19.58;;;11.32;;
70342;SDS011;57767;42.068;24.752;2023-03-02T04:05:00;19.85;;;12.20;;
70342;SDS011;57767;42.068;24.752;2023-03-02T04:06:06;31.42;;;13.45;;
70342;SDS011;57767;42.068;24.752;2023-03-02T04:07:08;18.15;;;12.23;;
70342;SDS011;57767;42.068;24.752;2023-03-02T04:08:10;21.85;;;12.80;;
70342;SDS011;57767;42.068;24.752;2023-03-02T04:09:12;22.85;;;12.43;;
70342;SDS011;57767;42.068;24.752;2023-03-02T04:10:15;19.08;;;12.43;;
70342;SDS011;57767;42.068;24.752;2023-03-02T04:11:17;23.65;;;12.75;;
70342;SDS011;57767;42.068;24.752;2023-03-02T04:12:19;19.00;;;11.93;;
70342;SDS011;57767;42.068;24.752;2023-03-02T04:13:20;24.13;;;13.30;;
70342;SDS011;57767;42.068;24.752;2023-03-02T04:14:22;17.65;;;12.13;;
70342;SDS011;57767;42.068;24.752;2023-03-02T04:15:25;20.67;;;12.63;;
70342;SDS011;57767;42.068;24.752;2023-03-02T04:16:28;24.77;;;12.65;;
70342;SDS011;57767;42.068;24.752;2023-03-02T04:17:31;26.40;;;13.73;;
70342;SDS011;57767;42.068;24.752;2023-03-02T04:18:32;18.95;;;12.55;;
70342;SDS011;57767;42.068;24.752;2023-03-02T04:19:34;18.65;;;11.43;;
70342;SDS011;57767;42.068;24.752;2023-03-02T04:20:37;22.33;;;12.57;;
70342;SDS011;57767;42.068;24.752;2023-03-02T04:21:40;21.20;;;12.57;;
70342;SDS011;57767;42.068;24.752;2023-03-02T04:22:46;25.35;;;12.82;;
70342;SDS011;57767;42.068;24.752;2023-03-02T04:23:50;22.40;;;11.98;;
70342;SDS011;57767;42.068;24.752;2023-03-02T04:24:51;30.05;;;14.32;;
70342;SDS011;57767;42.068;24.752;2023-03-02T04:25:53;20.90;;;13.02;;
70342;SDS011;57767;42.068;24.752;2023-03-02T04:26:55;25.13;;;13.25;;
70342;SDS011;57767;42.068;24.752;2023-03-02T04:27:57;23.38;;;13.23;;
70342;SDS011;57767;42.068;24.752;2023-03-02T04:28:59;21.60;;;14.40;;
70342;SDS011;57767;42.068;24.752;2023-03-02T04:30:00;23.23;;;14.27;;
70342;SDS011;57767;42.068;24.752;2023-03-02T04:31:02;25.58;;;14.60;;
70342;SDS011;57767;42.068;24.752;2023-03-02T04:32:04;23.98;;;14.55;;
70342;SDS011;57767;42.068;24.752;2023-03-02T04:33:07;28.23;;;15.10;;
70342;SDS011;57767;42.068;24.752;2023-03-02T04:34:10;21.88;;;14.40;;
70342;SDS011;57767;42.068;24.752;2023-03-02T04:35:12;21.40;;;13.60;;
70342;SDS011;57767;42.068;24.752;2023-03-02T04:36:15;23.10;;;13.90;;
70342;SDS011;57767;42.068;24.752;2023-03-02T04:37:17;21.85;;;14.15;;
70342;SDS011;57767;42.068;24.752;2023-03-02T04:38:19;20.65;;;13.27;;
70342;SDS011;57767;42.068;24.752;2023-03-02T04:39:22;26.95;;;13.75;;
70342;SDS011;57767;42.068;24.752;2023-03-02T04:40:23;25.42;;;15.48;;
70342;SDS011;57767;42.068;24.752;2023-03-02T04:41:25;30.42;;;18.63;;
70342;SDS011;57767;42.068;24.752;2023-03-02T04:42:27;28.35;;;16.35;;
70342;SDS011;57767;42.068;24.752;2023-03-02T04:43:29;31.65;;;17.58;;
70342;SDS011;57767;42.068;24.752;2023-03-02T04:44:32;32.20;;;20.20;;
70342;SDS011;57767;42.068;24.752;2023-03-02T04:45:34;28.10;;;15.00;;
70342;SDS011;57767;42.068;24.752;2023-03-02T04:46:36;30.13;;;17.77;;
70342;SDS011;57767;42.068;24.752;2023-03-02T04:47:38;27.73;;;17.00;;
70342;SDS011;57767;42.068;24.752;2023-03-02T04:48:41;23.55;;;15.85;;
70342;SDS011;57767;42.068;24.752;2023-03-02T04:49:42;33.83;;;15.32;;
70342;SDS011;57767;42.068;24.752;2023-03-02T04:50:44;25.30;;;16.02;;
70342;SDS011;57767;42.068;24.752;2023-03-02T04:51:47;22.35;;;15.00;;
70342;SDS011;57767;42.068;24.752;2023-03-02T04:52:49;25.00;;;15.98;;
70342;SDS011;57767;42.068;24.752;2023-03-02T04:53:52;30.00;;;16.35;;
70342;SDS011;57767;42.068;24.752;2023-03-02T04:54:58;28.83;;;18.20;;
70342;SDS011;57767;42.068;24.752;2023-03-02T04:56:00;26.23;;;17.25;;
70342;SDS011;57767;42.068;24.752;2023-03-02T04:57:01;27.70;;;16.40;;
70342;SDS011;57767;42.068;24.752;2023-03-02T04:58:03;26.50;;;15.57;;
70342;SDS011;57767;42.068;24.752;2023-03-02T04:59:05;26.85;;;16.20;;
70342;SDS011;57767;42.068;24.752;2023-03-02T05:00:07;26.33;;;16.40;;
70342;SDS011;57767;42.068;24.752;2023-03-02T05:01:10;24.50;;;15.88;;
70342;SDS011;57767;42.068;24.752;2023-03-02T05:02:13;25.30;;;15.85;;
70342;SDS011;57767;42.068;24.752;2023-03-02T05:03:15;24.23;;;15.20;;
70342;SDS011;57767;42.068;24.752;2023-03-02T05:04:16;30.63;;;15.18;;
70342;SDS011;57767;42.068;24.752;2023-03-02T05:05:20;26.40;;;16.13;;
70342;SDS011;57767;42.068;24.752;2023-03-02T05:06:24;26.33;;;16.67;;
70342;SDS011;57767;42.068;24.752;2023-03-02T05:07:26;29.83;;;16.65;;
70342;SDS011;57767;42.068;24.752;2023-03-02T05:08:28;28.15;;;18.73;;
70342;SDS011;57767;42.068;24.752;2023-03-02T05:09:31;25.23;;;16.50;;
70342;SDS011;57767;42.068;24.752;2023-03-02T05:10:33;29.15;;;16.33;;
70342;SDS011;57767;42.068;24.752;2023-03-02T05:11:34;26.98;;;16.58;;
70342;SDS011;57767;42.068;24.752;2023-03-02T05:12:37;29.65;;;16.25;;
70342;SDS011;57767;42.068;24.752;2023-03-02T05:13:59;26.15;;;18.80;;
70342;SDS011;57767;42.068;24.752;2023-03-02T05:15:03;32.75;;;18.42;;
70342;SDS011;57767;42.068;24.752;2023-03-02T05:16:05;27.77;;;20.05;;
70342;SDS011;57767;42.068;24.752;2023-03-02T05:17:07;27.60;;;18.55;;
70342;SDS011;57767;42.068;24.752;2023-03-02T05:18:09;30.05;;;18.95;;
70342;SDS011;57767;42.068;24.752;2023-03-02T05:19:12;28.63;;;19.80;;
70342;SDS011;57767;42.068;24.752;2023-03-02T05:20:14;28.25;;;20.20;;
70342;SDS011;57767;42.068;24.752;2023-03-02T05:21:16;31.38;;;20.65;;
70342;SDS011;57767;42.068;24.752;2023-03-02T05:22:18;29.60;;;20.38;;
70342;SDS011;57767;42.068;24.752;2023-03-02T05:23:20;34.85;;;19.95;;
70342;SDS011;57767;42.068;24.752;2023-03-02T05:24:26;26.90;;;19.67;;
70342;SDS011;57767;42.068;24.752;2023-03-02T05:25:29;31.90;;;20.38;;
70342;SDS011;57767;42.068;24.752;2023-03-02T05:26:32;31.63;;;21.35;;
70342;SDS011;57767;42.068;24.752;2023-03-02T05:27:34;32.28;;;20.13;;
70342;SDS011;57767;42.068;24.752;2023-03-02T05:28:37;28.23;;;19.17;;
70342;SDS011;57767;42.068;24.752;2023-03-02T05:29:39;30.58;;;20.48;;
70342;SDS011;57767;42.068;24.752;2023-03-02T05:30:40;28.80;;;19.90;;
70342;SDS011;57767;42.068;24.752;2023-03-02T05:31:43;30.58;;;18.75;;
70342;SDS011;57767;42.068;24.752;2023-03-02T05:32:45;30.55;;;19.63;;
70342;SDS011;57767;42.068;24.752;2023-03-02T05:33:47;30.15;;;19.95;;
70342;SDS011;57767;42.068;24.752;2023-03-02T05:34:49;36.08;;;20.75;;
70342;SDS011;57767;42.068;24.752;2023-03-02T05:35:51;31.63;;;19.60;;
70342;SDS011;57767;42.068;24.752;2023-03-02T05:36:53;36.55;;;19.40;;
70342;SDS011;57767;42.068;24.752;2023-03-02T05:37:55;31.25;;;19.83;;
70342;SDS011;57767;42.068;24.752;2023-03-02T05:38:57;32.00;;;19.80;;
70342;SDS011;57767;42.068;24.752;2023-03-02T05:39:58;33.13;;;19.23;;
70342;SDS011;57767;42.068;24.752;2023-03-02T05:41:00;30.55;;;19.67;;
70342;SDS011;57767;42.068;24.752;2023-03-02T05:42:02;32.33;;;20.05;;
70342;SDS011;57767;42.068;24.752;2023-03-02T05:43:04;30.70;;;19.38;;
70342;SDS011;57767;42.068;24.752;2023-03-02T05:44:06;30.23;;;20.13;;
70342;SDS011;57767;42.068;24.752;2023-03-02T05:45:16;37.20;;;20.75;;
70342;SDS011;57767;42.068;24.752;2023-03-02T05:46:22;28.00;;;19.67;;
70342;SDS011;57767;42.068;24.752;2023-03-02T05:47:24;31.42;;;20.95;;
70342;SDS011;57767;42.068;24.752;2023-03-02T05:48:26;33.13;;;20.45;;
70342;SDS011;57767;42.068;24.752;2023-03-02T05:49:28;29.52;;;19.52;;
70342;SDS011;57767;42.068;24.752;2023-03-02T05:50:30;34.28;;;20.10;;
70342;SDS011;57767;42.068;24.752;2023-03-02T05:51:33;30.45;;;19.85;;
70342;SDS011;57767;42.068;24.752;2023-03-02T05:52:35;33.30;;;20.20;;
70342;SDS011;57767;42.068;24.752;2023-03-02T05:53:36;32.65;;;20.40;;
70342;SDS011;57767;42.068;24.752;2023-03-02T05:54:38;33.45;;;20.10;;
70342;SDS011;57767;42.068;24.752;2023-03-02T05:55:40;29.27;;;20.30;;
70342;SDS011;57767;42.068;24.752;2023-03-02T05:56:42;32.28;;;21.45;;
70342;SDS011;57767;42.068;24.752;2023-03-02T05:57:44;31.73;;;21.00;;
70342;SDS011;57767;42.068;24.752;2023-03-02T05:58:46;33.55;;;20.88;;
70342;SDS011;57767;42.068;24.752;2023-03-02T05:59:48;32.97;;;21.23;;
70342;SDS011;57767;42.068;24.752;2023-03-02T06:00:51;32.97;;;20.45;;
70342;SDS011;57767;42.068;24.752;2023-03-02T06:01:53;33.88;;;21.02;;
70342;SDS011;57767;42.068;24.752;2023-03-02T06:02:59;36.58;;;21.60;;
70342;SDS011;57767;42.068;24.752;2023-03-02T06:04:01;39.58;;;21.42;;
70342;SDS011;57767;42.068;24.752;2023-03-02T06:05:03;32.38;;;21.88;;
70342;SDS011;57767;42.068;24.752;2023-03-02T06:06:06;32.92;;;22.95;;
70342;SDS011;57767;42.068;24.752;2023-03-02T06:07:11;36.47;;;23.75;;
70342;SDS011;57767;42.068;24.752;2023-03-02T06:08:13;35.22;;;23.83;;
70342;SDS011;57767;42.068;24.752;2023-03-02T06:09:15;34.70;;;23.88;;
70342;SDS011;57767;42.068;24.752;2023-03-02T06:10:17;35.92;;;23.45;;
70342;SDS011;57767;42.068;24.752;2023-03-02T06:11:18;34.67;;;23.50;;
70342;SDS011;57767;42.068;24.752;2023-03-02T06:12:20;32.40;;;23.45;;
70342;SDS011;57767;42.068;24.752;2023-03-02T06:13:22;31.35;;;22.67;;
70342;SDS011;57767;42.068;24.752;2023-03-02T06:14:24;36.10;;;24.45;;
70342;SDS011;57767;42.068;24.752;2023-03-02T06:15:26;36.05;;;24.30;;
70342;SDS011;57767;42.068;24.752;2023-03-02T06:16:31;38.67;;;24.50;;